sensor_id;sensor_type;location;lat;lon;timestamp;pressure;altitude;pressure_sealevel;temperature;humidity
9229;BME280;4649;42.644;23.284;2023-07-13T00:01:18;93407.16;;;24.20;48.24
9229;BME280;4649;42.644;23.284;2023-07-13T00:03:45;93409.59;;;24.33;48.96
9229;BME280;4649;42.644;23.284;2023-07-13T00:06:12;93297.59;;;23.57;51.43
9229;BME280;4649;42.644;23.284;2023-07-13T00:08:39;93376.25;;;23.97;50.79
9229;BME280;4649;42.644;23.284;2023-07-13T00:11:06;93375.19;;;24.10;51.77
9229;BME280;4649;42.644;23.284;2023-07-13T00:13:36;93398.53;;;24.16;53.57
9229;BME280;4649;42.644;23.284;2023-07-13T00:16:04;93341.69;;;23.72;54.84
9229;BME280;4649;42.644;23.284;2023-07-13T00:18:33;93382.66;;;24.17;51.38
9229;BME280;4649;42.644;23.284;2023-07-13T00:21:03;93393.72;;;24.17;52.40
9229;BME280;4649;42.644;23.284;2023-07-13T00:23:32;93345.53;;;23.77;59.08
9229;BME280;4649;42.644;23.284;2023-07-13T00:26:00;93380.25;;;23.87;58.70
9229;BME280;4649;42.644;23.284;2023-07-13T00:28:27;93381.16;;;23.73;57.02
9229;BME280;4649;42.644;23.284;2023-07-13T00:30:55;93363.06;;;23.55;54.78
9229;BME280;4649;42.644;23.284;2023-07-13T00:33:21;93319.78;;;23.33;54.77
9229;BME280;4649;42.644;23.284;2023-07-13T00:35:51;93370.84;;;23.66;54.04
9229;BME280;4649;42.644;23.284;2023-07-13T00:38:17;93381.91;;;23.66;58.09
9229;BME280;4649;42.644;23.284;2023-07-13T00:40:44;93309.47;;;23.17;53.35
9229;BME280;4649;42.644;23.284;2023-07-13T00:43:17;93392.25;;;23.65;56.25
9229;BME280;4649;42.644;23.284;2023-07-13T00:48:46;93368.06;;;23.49;59.24
9229;BME280;4649;42.644;23.284;2023-07-13T00:51:20;93367.81;;;23.37;58.96
9229;BME280;4649;42.644;23.284;2023-07-13T00:53:49;93278.88;;;22.73;57.76
9229;BME280;4649;42.644;23.284;2023-07-13T00:56:18;93297.56;;;22.82;60.23
9229;BME280;4649;42.644;23.284;2023-07-13T00:58:46;93310.41;;;22.87;57.09
9229;BME280;4649;42.644;23.284;2023-07-13T01:01:13;93343.94;;;23.08;56.62
9229;BME280;4649;42.644;23.284;2023-07-13T01:03:40;93373.66;;;23.41;59.56
9229;BME280;4649;42.644;23.284;2023-07-13T01:06:07;93370.81;;;23.32;57.76
9229;BME280;4649;42.644;23.284;2023-07-13T01:08:36;93355.09;;;23.18;59.80
9229;BME280;4649;42.644;23.284;2023-07-13T01:11:04;93368.50;;;23.21;59.31
9229;BME280;4649;42.644;23.284;2023-07-13T01:13:33;93367.59;;;23.19;63.10
9229;BME280;4649;42.644;23.284;2023-07-13T01:16:04;93356.72;;;22.96;62.80
9229;BME280;4649;42.644;23.284;2023-07-13T01:18:33;93295.97;;;22.48;66.25
9229;BME280;4649;42.644;23.284;2023-07-13T01:21:04;93386.53;;;22.98;61.08
9229;BME280;4649;42.644;23.284;2023-07-13T01:23:32;93232.66;;;22.01;61.90
9229;BME280;4649;42.644;23.284;2023-07-13T01:26:00;93298.81;;;22.40;62.20
9229;BME280;4649;42.644;23.284;2023-07-13T01:28:28;93365.94;;;22.99;61.31
9229;BME280;4649;42.644;23.284;2023-07-13T01:30:57;93370.91;;;23.00;60.56
9229;BME280;4649;42.644;23.284;2023-07-13T01:33:25;93363.22;;;23.16;58.40
9229;BME280;4649;42.644;23.284;2023-07-13T01:36:11;93331.13;;;22.96;56.67
9229;BME280;4649;42.644;23.284;2023-07-13T01:38:39;93275.94;;;22.47;60.03
9229;BME280;4649;42.644;23.284;2023-07-13T01:41:06;93265.88;;;22.42;58.07
9229;BME280;4649;42.644;23.284;2023-07-13T01:43:33;93370.16;;;23.00;61.74
9229;BME280;4649;42.644;23.284;2023-07-13T01:46:01;93368.50;;;22.97;61.69
9229;BME280;4649;42.644;23.284;2023-07-13T01:48:28;93299.59;;;22.58;62.70
9229;BME280;4649;42.644;23.284;2023-07-13T01:50:54;93252.38;;;22.22;60.53
9229;BME280;4649;42.644;23.284;2023-07-13T01:53:26;93289.25;;;22.02;62.36
9229;BME280;4649;42.644;23.284;2023-07-13T01:55:53;93301.19;;;21.58;64.34
9229;BME280;4649;42.644;23.284;2023-07-13T01:58:20;93266.34;;;21.31;65.59
9229;BME280;4649;42.644;23.284;2023-07-13T02:00:49;93328.19;;;22.06;63.43
9229;BME280;4649;42.644;23.284;2023-07-13T02:03:16;93233.59;;;21.57;63.32
9229;BME280;4649;42.644;23.284;2023-07-13T02:05:45;93332.19;;;22.20;68.48
9229;BME280;4649;42.644;23.284;2023-07-13T02:08:12;93320.41;;;22.19;63.39
9229;BME280;4649;42.644;23.284;2023-07-13T02:10:45;93252.66;;;21.70;65.38
9229;BME280;4649;42.644;23.284;2023-07-13T02:13:12;93359.31;;;22.38;69.63
9229;BME280;4649;42.644;23.284;2023-07-13T02:15:40;93344.84;;;22.30;65.70
9229;BME280;4649;42.644;23.284;2023-07-13T02:18:09;93316.78;;;22.09;68.37
9229;BME280;4649;42.644;23.284;2023-07-13T02:20:36;93373.81;;;22.39;66.54
9229;BME280;4649;42.644;23.284;2023-07-13T02:23:03;93284.44;;;21.71;70.95
9229;BME280;4649;42.644;23.284;2023-07-13T02:25:30;93376.44;;;22.29;71.56
9229;BME280;4649;42.644;23.284;2023-07-13T02:27:59;93328.22;;;21.99;67.74
9229;BME280;4649;42.644;23.284;2023-07-13T02:30:27;93274.94;;;21.57;68.32
9229;BME280;4649;42.644;23.284;2023-07-13T02:32:55;93220.88;;;21.15;69.54
9229;BME280;4649;42.644;23.284;2023-07-13T02:35:22;93385.63;;;22.24;70.63
9229;BME280;4649;42.644;23.284;2023-07-13T02:37:49;93315.75;;;21.90;69.20
9229;BME280;4649;42.644;23.284;2023-07-13T02:40:17;93278.00;;;21.68;65.08
9229;BME280;4649;42.644;23.284;2023-07-13T02:42:44;93299.25;;;21.83;65.61
9229;BME280;4649;42.644;23.284;2023-07-13T02:45:13;93384.84;;;22.39;65.05
9229;BME280;4649;42.644;23.284;2023-07-13T02:47:41;93375.13;;;22.38;67.33
9229;BME280;4649;42.644;23.284;2023-07-13T02:50:09;93304.75;;;21.83;66.29
9229;BME280;4649;42.644;23.284;2023-07-13T02:52:36;93379.41;;;22.24;66.84
9229;BME280;4649;42.644;23.284;2023-07-13T02:55:04;93293.75;;;21.83;65.74
9229;BME280;4649;42.644;23.284;2023-07-13T02:57:33;93351.47;;;22.20;67.46
9229;BME280;4649;42.644;23.284;2023-07-13T03:00:03;93265.88;;;21.71;65.47
9229;BME280;4649;42.644;23.284;2023-07-13T03:02:34;93247.38;;;21.57;68.13
9229;BME280;4649;42.644;23.284;2023-07-13T03:05:04;93238.22;;;21.47;66.83
9229;BME280;4649;42.644;23.284;2023-07-13T03:07:31;93384.31;;;22.40;68.88
9229;BME280;4649;42.644;23.284;2023-07-13T03:09:59;93383.25;;;22.28;69.71
9229;BME280;4649;42.644;23.284;2023-07-13T03:12:30;93331.22;;;21.86;68.22
9229;BME280;4649;42.644;23.284;2023-07-13T03:14:58;93186.41;;;21.06;67.72
9229;BME280;4649;42.644;23.284;2023-07-13T03:17:26;93379.59;;;22.18;69.22
9229;BME280;4649;42.644;23.284;2023-07-13T03:19:57;93391.09;;;21.93;70.17
9229;BME280;4649;42.644;23.284;2023-07-13T03:22:24;93317.16;;;21.44;72.88
9229;BME280;4649;42.644;23.284;2023-07-13T03:24:51;93188.31;;;20.59;74.15
9229;BME280;4649;42.644;23.284;2023-07-13T03:27:18;93244.53;;;21.18;68.68
9229;BME280;4649;42.644;23.284;2023-07-13T03:29:46;93353.38;;;22.03;70.13
9229;BME280;4649;42.644;23.284;2023-07-13T03:32:13;93394.50;;;22.15;73.91
9229;BME280;4649;42.644;23.284;2023-07-13T03:34:40;93375.75;;;22.14;74.00
9229;BME280;4649;42.644;23.284;2023-07-13T03:37:09;93384.75;;;22.14;73.32
9229;BME280;4649;42.644;23.284;2023-07-13T03:39:37;93371.97;;;22.02;75.40
9229;BME280;4649;42.644;23.284;2023-07-13T03:42:05;93396.88;;;22.26;75.71
9229;BME280;4649;42.644;23.284;2023-07-13T03:44:35;93303.59;;;21.61;75.19
9229;BME280;4649;42.644;23.284;2023-07-13T03:47:02;93379.06;;;22.20;77.82
9229;BME280;4649;42.644;23.284;2023-07-13T03:49:31;93324.50;;;22.11;74.33
9229;BME280;4649;42.644;23.284;2023-07-13T03:51:59;93392.84;;;22.59;75.74
9229;BME280;4649;42.644;23.284;2023-07-13T03:54:35;93390.66;;;22.58;77.02
9229;BME280;4649;42.644;23.284;2023-07-13T03:57:05;93323.16;;;22.19;79.12
9229;BME280;4649;42.644;23.284;2023-07-13T03:59:32;93370.50;;;22.72;73.70
9229;BME280;4649;42.644;23.284;2023-07-13T04:02:00;93323.63;;;22.40;74.50
9229;BME280;4649;42.644;23.284;2023-07-13T04:04:29;93343.63;;;22.48;74.27
9229;BME280;4649;42.644;23.284;2023-07-13T04:06:57;93228.38;;;21.76;78.30
9229;BME280;4649;42.644;23.284;2023-07-13T04:09:24;93348.38;;;22.79;76.32
9229;BME280;4649;42.644;23.284;2023-07-13T04:11:52;93272.91;;;22.36;78.47
9229;BME280;4649;42.644;23.284;2023-07-13T04:14:19;93389.31;;;23.22;74.06
9229;BME280;4649;42.644;23.284;2023-07-13T04:16:46;93297.41;;;22.80;69.35
9229;BME280;4649;42.644;23.284;2023-07-13T04:19:13;93320.53;;;23.50;68.25
9229;BME280;4649;42.644;23.284;2023-07-13T04:21:40;93321.53;;;23.96;69.76
9229;BME280;4649;42.644;23.284;2023-07-13T04:24:08;93379.16;;;24.76;69.49
9229;BME280;4649;42.644;23.284;2023-07-13T04:26:35;93373.53;;;24.93;67.60
9229;BME280;4649;42.644;23.284;2023-07-13T04:29:06;93392.22;;;25.19;67.48
9229;BME280;4649;42.644;23.284;2023-07-13T04:31:35;93346.31;;;24.99;65.56
9229;BME280;4649;42.644;23.284;2023-07-13T04:34:03;93394.09;;;25.62;67.94
9229;BME280;4649;42.644;23.284;2023-07-13T04:36:47;93257.72;;;25.09;65.26
9229;BME280;4649;42.644;23.284;2023-07-13T04:39:19;93354.16;;;26.02;64.35
9229;BME280;4649;42.644;23.284;2023-07-13T04:41:47;93403.41;;;26.30;63.51
9229;BME280;4649;42.644;23.284;2023-07-13T04:44:16;93375.22;;;26.43;60.37
9229;BME280;4649;42.644;23.284;2023-07-13T04:46:42;93421.03;;;26.82;59.67
9229;BME280;4649;42.644;23.284;2023-07-13T04:49:09;93407.03;;;26.70;59.64
9229;BME280;4649;42.644;23.284;2023-07-13T04:51:36;93423.09;;;27.00;58.88
9229;BME280;4649;42.644;23.284;2023-07-13T04:54:03;93279.81;;;26.29;60.57
9229;BME280;4649;42.644;23.284;2023-07-13T04:56:30;93429.31;;;27.69;57.99
9229;BME280;4649;42.644;23.284;2023-07-13T04:58:57;93383.53;;;27.81;55.84
9229;BME280;4649;42.644;23.284;2023-07-13T05:01:25;93315.25;;;27.69;55.46
9229;BME280;4649;42.644;23.284;2023-07-13T05:03:52;93251.44;;;27.40;58.07
9229;BME280;4649;42.644;23.284;2023-07-13T05:06:22;93344.97;;;28.29;59.36
9229;BME280;4649;42.644;23.284;2023-07-13T05:08:52;93265.34;;;27.82;55.87
9229;BME280;4649;42.644;23.284;2023-07-13T05:11:20;93412.78;;;28.86;55.81
9229;BME280;4649;42.644;23.284;2023-07-13T05:13:47;93396.63;;;28.73;55.06
9229;BME280;4649;42.644;23.284;2023-07-13T05:16:14;93389.78;;;28.65;53.56
9229;BME280;4649;42.644;23.284;2023-07-13T05:18:42;93432.31;;;28.44;54.91
9229;BME280;4649;42.644;23.284;2023-07-13T05:21:10;93383.94;;;28.08;54.32
9229;BME280;4649;42.644;23.284;2023-07-13T05:23:37;93279.38;;;27.42;56.35
9229;BME280;4649;42.644;23.284;2023-07-13T05:26:05;93361.81;;;28.10;54.07
9229;BME280;4649;42.644;23.284;2023-07-13T05:28:32;93336.75;;;27.89;51.78
9229;BME280;4649;42.644;23.284;2023-07-13T05:30:59;93440.38;;;28.61;53.22
9229;BME280;4649;42.644;23.284;2023-07-13T05:33:26;93418.06;;;28.50;51.71
9229;BME280;4649;42.644;23.284;2023-07-13T05:35:55;93422.44;;;28.53;50.94
9229;BME280;4649;42.644;23.284;2023-07-13T05:38:22;93345.91;;;28.54;50.83
9229;BME280;4649;42.644;23.284;2023-07-13T05:40:50;93397.88;;;28.93;53.26
9229;BME280;4649;42.644;23.284;2023-07-13T05:43:17;93429.84;;;29.24;53.21
9229;BME280;4649;42.644;23.284;2023-07-13T05:45:46;93441.16;;;29.38;53.40
9229;BME280;4649;42.644;23.284;2023-07-13T05:48:41;93449.78;;;29.42;52.47
9229;BME280;4649;42.644;23.284;2023-07-13T05:51:48;93425.28;;;29.74;50.46
9229;BME280;4649;42.644;23.284;2023-07-13T05:54:54;93421.53;;;30.04;49.07
9229;BME280;4649;42.644;23.284;2023-07-13T05:57:21;93296.50;;;29.32;49.16
9229;BME280;4649;42.644;23.284;2023-07-13T05:59:47;93446.31;;;30.57;48.67
9229;BME280;4649;42.644;23.284;2023-07-13T06:02:15;93347.94;;;30.11;48.63
9229;BME280;4649;42.644;23.284;2023-07-13T06:04:41;93407.00;;;30.78;53.30
9229;BME280;4649;42.644;23.284;2023-07-13T06:07:09;93399.78;;;30.86;48.47
9229;BME280;4649;42.644;23.284;2023-07-13T06:09:37;93328.66;;;30.40;48.00
9229;BME280;4649;42.644;23.284;2023-07-13T06:12:04;93422.03;;;31.34;45.93
9229;BME280;4649;42.644;23.284;2023-07-13T06:14:34;93421.69;;;31.53;46.34
9229;BME280;4649;42.644;23.284;2023-07-13T06:17:05;93392.34;;;31.16;47.17
9229;BME280;4649;42.644;23.284;2023-07-13T06:19:32;93431.13;;;31.21;46.49
9229;BME280;4649;42.644;23.284;2023-07-13T06:21:59;93396.06;;;30.82;46.88
9229;BME280;4649;42.644;23.284;2023-07-13T06:24:27;93386.25;;;30.45;47.06
9229;BME280;4649;42.644;23.284;2023-07-13T06:26:54;93292.66;;;29.73;47.16
9229;BME280;4649;42.644;23.284;2023-07-13T06:29:21;93348.69;;;30.00;46.10
9229;BME280;4649;42.644;23.284;2023-07-13T06:31:48;93357.97;;;30.27;43.09
9229;BME280;4649;42.644;23.284;2023-07-13T06:34:15;93414.84;;;31.18;44.10
9229;BME280;4649;42.644;23.284;2023-07-13T06:36:42;93379.09;;;30.91;43.84
9229;BME280;4649;42.644;23.284;2023-07-13T06:39:09;93343.44;;;30.54;45.39
9229;BME280;4649;42.644;23.284;2023-07-13T06:41:37;93362.63;;;30.59;44.86
9229;BME280;4649;42.644;23.284;2023-07-13T06:44:04;93409.75;;;30.89;45.81
9229;BME280;4649;42.644;23.284;2023-07-13T06:46:31;93299.25;;;30.39;43.95
9229;BME280;4649;42.644;23.284;2023-07-13T06:48:58;93344.44;;;30.72;43.50
9229;BME280;4649;42.644;23.284;2023-07-13T06:51:25;93310.63;;;30.54;44.33
9229;BME280;4649;42.644;23.284;2023-07-13T06:53:53;93414.56;;;31.25;43.29
9229;BME280;4649;42.644;23.284;2023-07-13T06:56:22;93441.50;;;31.32;44.48
9229;BME280;4649;42.644;23.284;2023-07-13T06:58:51;93437.38;;;31.33;44.73
9229;BME280;4649;42.644;23.284;2023-07-13T07:01:17;93415.78;;;31.22;43.80
9229;BME280;4649;42.644;23.284;2023-07-13T07:03:44;93435.28;;;31.20;44.91
9229;BME280;4649;42.644;23.284;2023-07-13T07:06:17;93391.09;;;30.81;44.53
9229;BME280;4649;42.644;23.284;2023-07-13T07:08:45;93456.41;;;31.23;46.01
9229;BME280;4649;42.644;23.284;2023-07-13T07:11:15;93412.56;;;31.14;45.30
9229;BME280;4649;42.644;23.284;2023-07-13T07:13:42;93404.78;;;31.13;45.10
9229;BME280;4649;42.644;23.284;2023-07-13T07:16:11;93397.84;;;31.14;43.75
9229;BME280;4649;42.644;23.284;2023-07-13T07:18:38;93362.13;;;31.12;43.49
9229;BME280;4649;42.644;23.284;2023-07-13T07:21:04;93383.88;;;31.27;44.08
9229;BME280;4649;42.644;23.284;2023-07-13T07:23:39;93456.47;;;31.75;44.89
9229;BME280;4649;42.644;23.284;2023-07-13T07:26:06;93331.25;;;31.24;45.81
9229;BME280;4649;42.644;23.284;2023-07-13T07:28:34;93446.06;;;32.15;42.30
9229;BME280;4649;42.644;23.284;2023-07-13T07:31:01;93368.22;;;31.74;42.26
9229;BME280;4649;42.644;23.284;2023-07-13T07:33:29;93410.34;;;32.03;43.20
9229;BME280;4649;42.644;23.284;2023-07-13T07:35:56;93434.63;;;32.11;43.50
9229;BME280;4649;42.644;23.284;2023-07-13T07:38:23;93331.69;;;31.45;42.90
9229;BME280;4649;42.644;23.284;2023-07-13T07:40:50;93314.41;;;31.48;42.96
9229;BME280;4649;42.644;23.284;2023-07-13T07:43:18;93383.69;;;32.02;42.62
9229;BME280;4649;42.644;23.284;2023-07-13T07:45:45;93307.34;;;31.74;42.16
9229;BME280;4649;42.644;23.284;2023-07-13T07:48:12;93373.69;;;32.25;40.71
9229;BME280;4649;42.644;23.284;2023-07-13T07:50:42;93430.22;;;32.62;42.93
9229;BME280;4649;42.644;23.284;2023-07-13T07:53:10;93403.16;;;32.53;41.56
9229;BME280;4649;42.644;23.284;2023-07-13T07:55:38;93430.41;;;32.79;40.50
9229;BME280;4649;42.644;23.284;2023-07-13T07:58:05;93337.38;;;32.27;40.34
9229;BME280;4649;42.644;23.284;2023-07-13T08:00:38;93341.22;;;32.20;40.99
9229;BME280;4649;42.644;23.284;2023-07-13T08:03:05;93354.31;;;31.76;42.60
9229;BME280;4649;42.644;23.284;2023-07-13T08:05:41;93408.69;;;32.24;41.56
9229;BME280;4649;42.644;23.284;2023-07-13T08:08:08;93414.78;;;32.34;42.07
9229;BME280;4649;42.644;23.284;2023-07-13T08:10:35;93407.63;;;32.45;41.56
9229;BME280;4649;42.644;23.284;2023-07-13T08:13:02;93289.13;;;31.60;42.39
9229;BME280;4649;42.644;23.284;2023-07-13T08:15:29;93344.25;;;32.11;42.87
9229;BME280;4649;42.644;23.284;2023-07-13T08:17:56;93365.91;;;32.37;41.83
9229;BME280;4649;42.644;23.284;2023-07-13T08:20:23;93352.53;;;32.36;41.78
9229;BME280;4649;42.644;23.284;2023-07-13T08:22:52;93331.78;;;32.27;41.79
9229;BME280;4649;42.644;23.284;2023-07-13T08:25:19;93248.00;;;31.91;42.88
9229;BME280;4649;42.644;23.284;2023-07-13T08:27:47;93254.38;;;31.65;43.32
9229;BME280;4649;42.644;23.284;2023-07-13T08:30:14;93327.31;;;32.22;41.61
9229;BME280;4649;42.644;23.284;2023-07-13T08:32:42;93363.56;;;32.61;42.96
9229;BME280;4649;42.644;23.284;2023-07-13T08:35:10;93368.34;;;32.58;41.98
9229;BME280;4649;42.644;23.284;2023-07-13T08:37:37;93380.16;;;32.70;41.71
9229;BME280;4649;42.644;23.284;2023-07-13T08:40:10;93394.88;;;32.99;42.45
9229;BME280;4649;42.644;23.284;2023-07-13T08:42:39;93307.13;;;32.39;40.10
9229;BME280;4649;42.644;23.284;2023-07-13T08:45:14;93283.16;;;32.08;41.00
9229;BME280;4649;42.644;23.284;2023-07-13T08:47:49;93359.53;;;32.79;41.91
9229;BME280;4649;42.644;23.284;2023-07-13T08:50:23;93381.50;;;32.98;41.79
9229;BME280;4649;42.644;23.284;2023-07-13T08:52:52;93396.03;;;33.08;40.47
9229;BME280;4649;42.644;23.284;2023-07-13T08:55:26;93326.66;;;32.95;39.93
9229;BME280;4649;42.644;23.284;2023-07-13T08:58:00;93292.91;;;32.93;39.00
9229;BME280;4649;42.644;23.284;2023-07-13T09:00:50;93250.78;;;32.62;40.08
9229;BME280;4649;42.644;23.284;2023-07-13T09:03:22;93390.09;;;33.46;38.57
9229;BME280;4649;42.644;23.284;2023-07-13T09:05:52;93373.63;;;33.38;39.75
9229;BME280;4649;42.644;23.284;2023-07-13T09:08:34;93324.38;;;33.20;38.76
9229;BME280;4649;42.644;23.284;2023-07-13T09:11:22;93417.88;;;34.00;37.79
9229;BME280;4649;42.644;23.284;2023-07-13T09:13:58;93305.44;;;33.21;34.85
9229;BME280;4649;42.644;23.284;2023-07-13T09:16:27;93355.38;;;33.53;34.88
9229;BME280;4649;42.644;23.284;2023-07-13T09:18:56;93414.59;;;33.59;35.39
9229;BME280;4649;42.644;23.284;2023-07-13T09:21:30;93400.84;;;33.80;34.63
9229;BME280;4649;42.644;23.284;2023-07-13T09:24:03;93368.94;;;33.89;35.77
9229;BME280;4649;42.644;23.284;2023-07-13T09:26:34;93377.06;;;33.83;36.05
9229;BME280;4649;42.644;23.284;2023-07-13T09:29:11;93396.13;;;34.00;34.56
9229;BME280;4649;42.644;23.284;2023-07-13T09:31:43;93405.56;;;34.06;35.94
9229;BME280;4649;42.644;23.284;2023-07-13T09:34:13;93391.03;;;33.97;35.04
9229;BME280;4649;42.644;23.284;2023-07-13T09:36:40;93401.00;;;34.15;35.16
9229;BME280;4649;42.644;23.284;2023-07-13T09:39:14;93319.28;;;33.78;35.47
9229;BME280;4649;42.644;23.284;2023-07-13T09:41:51;93376.34;;;34.13;34.95
9229;BME280;4649;42.644;23.284;2023-07-13T09:44:28;93412.44;;;34.52;34.46
9229;BME280;4649;42.644;23.284;2023-07-13T09:46:56;93413.03;;;34.65;35.14
9229;BME280;4649;42.644;23.284;2023-07-13T09:49:24;93308.47;;;34.03;34.81
9229;BME280;4649;42.644;23.284;2023-07-13T09:51:58;93327.13;;;33.97;36.06
9229;BME280;4649;42.644;23.284;2023-07-13T09:54:26;93268.59;;;33.59;35.57
9229;BME280;4649;42.644;23.284;2023-07-13T09:56:59;93337.72;;;34.14;36.14
9229;BME280;4649;42.644;23.284;2023-07-13T09:59:29;93386.28;;;34.64;34.41
9229;BME280;4649;42.644;23.284;2023-07-13T10:01:57;93235.53;;;33.90;33.46
9229;BME280;4649;42.644;23.284;2023-07-13T10:04:28;93336.16;;;34.44;34.69
9229;BME280;4649;42.644;23.284;2023-07-13T10:07:05;93345.97;;;34.43;35.51
9229;BME280;4649;42.644;23.284;2023-07-13T10:09:32;93290.78;;;34.01;36.63
9229;BME280;4649;42.644;23.284;2023-07-13T10:12:01;93344.47;;;34.57;36.09
9229;BME280;4649;42.644;23.284;2023-07-13T10:14:28;93331.06;;;34.56;32.45
9229;BME280;4649;42.644;23.284;2023-07-13T10:17:00;93297.75;;;34.33;28.13
9229;BME280;4649;42.644;23.284;2023-07-13T10:19:29;93284.28;;;34.29;26.97
9229;BME280;4649;42.644;23.284;2023-07-13T10:22:00;93297.31;;;34.56;27.04
9229;BME280;4649;42.644;23.284;2023-07-13T10:24:30;93292.50;;;34.75;25.79
9229;BME280;4649;42.644;23.284;2023-07-13T10:27:05;93366.44;;;35.30;25.38
9229;BME280;4649;42.644;23.284;2023-07-13T10:29:39;93233.75;;;34.31;24.52
9229;BME280;4649;42.644;23.284;2023-07-13T10:32:12;93350.75;;;35.25;24.92
9229;BME280;4649;42.644;23.284;2023-07-13T10:34:40;93224.59;;;34.48;25.27
9229;BME280;4649;42.644;23.284;2023-07-13T10:37:16;93285.66;;;34.98;24.93
9229;BME280;4649;42.644;23.284;2023-07-13T10:39:46;93231.34;;;34.59;24.71
9229;BME280;4649;42.644;23.284;2023-07-13T10:42:27;93343.06;;;35.45;24.71
9229;BME280;4649;42.644;23.284;2023-07-13T10:44:54;93303.72;;;35.10;25.53
9229;BME280;4649;42.644;23.284;2023-07-13T10:47:22;93189.41;;;34.30;26.46
9229;BME280;4649;42.644;23.284;2023-07-13T10:49:52;93192.06;;;34.26;26.42
9229;BME280;4649;42.644;23.284;2023-07-13T10:52:45;93323.31;;;35.43;26.24
9229;BME280;4649;42.644;23.284;2023-07-13T10:55:36;93319.84;;;35.44;25.93
9229;BME280;4649;42.644;23.284;2023-07-13T10:58:13;93299.56;;;35.30;25.24
9229;BME280;4649;42.644;23.284;2023-07-13T11:00:49;93324.47;;;35.55;25.28
9229;BME280;4649;42.644;23.284;2023-07-13T11:03:19;93315.00;;;35.66;25.25
9229;BME280;4649;42.644;23.284;2023-07-13T11:05:51;93293.28;;;35.49;25.23
9229;BME280;4649;42.644;23.284;2023-07-13T11:08:52;93314.16;;;35.81;26.68
9229;BME280;4649;42.644;23.284;2023-07-13T11:11:34;93303.38;;;35.76;25.64
9229;BME280;4649;42.644;23.284;2023-07-13T11:14:03;93303.66;;;35.84;25.53
9229;BME280;4649;42.644;23.284;2023-07-13T11:16:41;93223.44;;;35.46;26.41
9229;BME280;4649;42.644;23.284;2023-07-13T11:19:37;93278.53;;;35.90;25.39
9229;BME280;4649;42.644;23.284;2023-07-13T11:22:16;93169.78;;;35.03;24.54
9229;BME280;4649;42.644;23.284;2023-07-13T11:24:51;93268.13;;;35.75;24.68
9229;BME280;4649;42.644;23.284;2023-07-13T11:27:27;93250.88;;;35.65;24.68
9229;BME280;4649;42.644;23.284;2023-07-13T11:30:22;93128.41;;;34.88;26.59
9229;BME280;4649;42.644;23.284;2023-07-13T11:33:02;93150.22;;;35.07;25.74
9229;BME280;4649;42.644;23.284;2023-07-13T11:35:33;93248.09;;;35.86;26.21
9229;BME280;4649;42.644;23.284;2023-07-13T11:38:02;93247.38;;;35.86;25.93
9229;BME280;4649;42.644;23.284;2023-07-13T11:40:30;93204.66;;;35.52;25.76
9229;BME280;4649;42.644;23.284;2023-07-13T11:43:00;93280.34;;;35.62;26.41
9229;BME280;4649;42.644;23.284;2023-07-13T11:45:29;93148.28;;;34.38;29.24
9229;BME280;4649;42.644;23.284;2023-07-13T11:47:57;93212.06;;;35.05;29.29
9229;BME280;4649;42.644;23.284;2023-07-13T11:50:26;93270.91;;;35.36;28.66
9229;BME280;4649;42.644;23.284;2023-07-13T11:52:54;93163.78;;;34.57;28.76
9229;BME280;4649;42.644;23.284;2023-07-13T11:55:23;93192.38;;;35.05;29.00
9229;BME280;4649;42.644;23.284;2023-07-13T11:57:53;93269.28;;;35.68;27.94
9229;BME280;4649;42.644;23.284;2023-07-13T12:00:29;93255.34;;;35.72;28.70
9229;BME280;4649;42.644;23.284;2023-07-13T12:02:59;93212.16;;;34.36;29.85
9229;BME280;4649;42.644;23.284;2023-07-13T12:05:28;93181.66;;;33.45;31.05
9229;BME280;4649;42.644;23.284;2023-07-13T12:07:56;93260.09;;;34.40;31.65
9229;BME280;4649;42.644;23.284;2023-07-13T12:10:25;93244.88;;;34.81;31.92
9229;BME280;4649;42.644;23.284;2023-07-13T12:12:56;93213.53;;;34.89;30.23
9229;BME280;4649;42.644;23.284;2023-07-13T12:15:30;93246.28;;;34.28;30.11
9229;BME280;4649;42.644;23.284;2023-07-13T12:18:02;93246.84;;;33.92;33.16
9229;BME280;4649;42.644;23.284;2023-07-13T12:20:34;93173.72;;;33.73;32.06
9229;BME280;4649;42.644;23.284;2023-07-13T12:23:05;93168.72;;;33.71;30.49
9229;BME280;4649;42.644;23.284;2023-07-13T12:25:32;93247.84;;;34.49;30.06
9229;BME280;4649;42.644;23.284;2023-07-13T12:28:20;93197.94;;;34.14;30.41
9229;BME280;4649;42.644;23.284;2023-07-13T12:30:48;93083.13;;;32.74;32.48
9229;BME280;4649;42.644;23.284;2023-07-13T12:33:17;93240.88;;;33.84;32.96
9229;BME280;4649;42.644;23.284;2023-07-13T12:35:47;93178.44;;;33.86;31.89
9229;BME280;4649;42.644;23.284;2023-07-13T12:38:16;93100.63;;;33.38;31.99
9229;BME280;4649;42.644;23.284;2023-07-13T12:40:43;93107.59;;;33.04;30.00
9229;BME280;4649;42.644;23.284;2023-07-13T12:43:11;93119.63;;;32.91;30.49
9229;BME280;4649;42.644;23.284;2023-07-13T12:45:54;93148.63;;;33.44;31.26
9229;BME280;4649;42.644;23.284;2023-07-13T12:48:25;93220.66;;;34.38;30.70
9229;BME280;4649;42.644;23.284;2023-07-13T12:50:54;93222.66;;;34.35;30.09
9229;BME280;4649;42.644;23.284;2023-07-13T12:53:23;93217.34;;;33.76;29.75
9229;BME280;4649;42.644;23.284;2023-07-13T12:55:53;93124.63;;;33.41;30.20
9229;BME280;4649;42.644;23.284;2023-07-13T12:58:26;93141.28;;;33.87;30.63
9229;BME280;4649;42.644;23.284;2023-07-13T13:00:55;93189.06;;;34.39;30.31
9229;BME280;4649;42.644;23.284;2023-07-13T13:03:28;93204.13;;;34.82;28.05
9229;BME280;4649;42.644;23.284;2023-07-13T13:06:00;93145.16;;;34.30;28.13
9229;BME280;4649;42.644;23.284;2023-07-13T13:08:28;93123.38;;;33.96;29.51
9229;BME280;4649;42.644;23.284;2023-07-13T13:10:56;93144.59;;;34.16;28.43
9229;BME280;4649;42.644;23.284;2023-07-13T13:13:22;93124.63;;;34.08;29.60
9229;BME280;4649;42.644;23.284;2023-07-13T13:15:51;93160.63;;;33.79;30.37
9229;BME280;4649;42.644;23.284;2023-07-13T13:18:20;93160.84;;;33.35;30.58
9229;BME280;4649;42.644;23.284;2023-07-13T13:20:49;93032.66;;;32.43;31.07
9229;BME280;4649;42.644;23.284;2023-07-13T13:23:18;93063.41;;;32.72;33.13
9229;BME280;4649;42.644;23.284;2023-07-13T13:25:45;93165.22;;;33.71;33.10
9229;BME280;4649;42.644;23.284;2023-07-13T13:28:14;93095.41;;;33.31;31.02